sensor_id;sensor_type;location;lat;lon;timestamp;P1;durP1;ratioP1;P2;durP2;ratioP2
1509;SDS011;746;48.688;9.428;2022-12-29T00:01:56;15.63;;;10.93;;
1509;SDS011;746;48.688;9.428;2022-12-29T00:04:17;18.13;;;11.77;;
1509;SDS011;746;48.688;9.428;2022-12-29T00:06:38;16.50;;;11.60;;
1509;SDS011;746;48.688;9.428;2022-12-29T00:09:00;14.40;;;10.90;;
1509;SDS011;746;48.688;9.428;2022-12-29T00:11:22;15.67;;;11.70;;
1509;SDS011;746;48.688;9.428;2022-12-29T00:13:44;15.20;;;12.13;;
1509;SDS011;746;48.688;9.428;2022-12-29T00:16:23;16.37;;;11.97;;
1509;SDS011;746;48.688;9.428;2022-12-29T00:18:45;17.43;;;13.23;;
1509;SDS011;746;48.688;9.428;2022-12-29T00:21:07;16.17;;;12.23;;
1509;SDS011;746;48.688;9.428;2022-12-29T00:23:46;15.53;;;12.33;;
1509;SDS011;746;48.688;9.428;2022-12-29T00:26:30;15.13;;;11.23;;
1509;SDS011;746;48.688;9.428;2022-12-29T00:29:10;17.83;;;12.03;;
1509;SDS011;746;48.688;9.428;2022-12-29T00:31:49;17.47;;;11.70;;
1509;SDS011;746;48.688;9.428;2022-12-29T00:34:28;13.27;;;10.97;;
1509;SDS011;746;48.688;9.428;2022-12-29T00:37:07;13.77;;;9.60;;
1509;SDS011;746;48.688;9.428;2022-12-29T00:39:28;13.37;;;10.20;;
1509;SDS011;746;48.688;9.428;2022-12-29T00:42:08;14.83;;;10.93;;
1509;SDS011;746;48.688;9.428;2022-12-29T00:44:56;13.33;;;10.40;;
1509;SDS011;746;48.688;9.428;2022-12-29T00:47:17;17.40;;;12.57;;
1509;SDS011;746;48.688;9.428;2022-12-29T00:49:39;17.47;;;13.47;;
1509;SDS011;746;48.688;9.428;2022-12-29T00:52:00;23.07;;;15.20;;
1509;SDS011;746;48.688;9.428;2022-12-29T00:54:22;19.67;;;14.10;;
1509;SDS011;746;48.688;9.428;2022-12-29T00:56:43;21.83;;;15.30;;
1509;SDS011;746;48.688;9.428;2022-12-29T00:59:07;15.30;;;11.60;;
1509;SDS011;746;48.688;9.428;2022-12-29T01:01:29;14.20;;;10.67;;
1509;SDS011;746;48.688;9.428;2022-12-29T01:03:51;17.63;;;12.50;;
1509;SDS011;746;48.688;9.428;2022-12-29T01:06:21;15.43;;;11.40;;
1509;SDS011;746;48.688;9.428;2022-12-29T01:08:43;14.97;;;10.50;;
1509;SDS011;746;48.688;9.428;2022-12-29T01:11:05;19.10;;;11.77;;
1509;SDS011;746;48.688;9.428;2022-12-29T01:13:26;17.80;;;11.87;;
1509;SDS011;746;48.688;9.428;2022-12-29T01:15:49;13.17;;;9.63;;
1509;SDS011;746;48.688;9.428;2022-12-29T01:18:11;12.57;;;9.87;;
1509;SDS011;746;48.688;9.428;2022-12-29T01:20:32;14.13;;;9.83;;
1509;SDS011;746;48.688;9.428;2022-12-29T01:22:54;11.77;;;9.77;;
1509;SDS011;746;48.688;9.428;2022-12-29T01:25:15;15.70;;;10.60;;
1509;SDS011;746;48.688;9.428;2022-12-29T01:27:36;13.27;;;10.03;;
1509;SDS011;746;48.688;9.428;2022-12-29T01:29:58;11.70;;;9.00;;
1509;SDS011;746;48.688;9.428;2022-12-29T01:32:19;14.97;;;10.77;;
1509;SDS011;746;48.688;9.428;2022-12-29T01:34:42;15.87;;;10.73;;
1509;SDS011;746;48.688;9.428;2022-12-29T01:37:03;15.53;;;12.23;;
1509;SDS011;746;48.688;9.428;2022-12-29T01:39:26;15.87;;;11.23;;
1509;SDS011;746;48.688;9.428;2022-12-29T01:41:47;13.00;;;9.87;;
1509;SDS011;746;48.688;9.428;2022-12-29T01:46:48;14.13;;;11.27;;
1509;SDS011;746;48.688;9.428;2022-12-29T01:49:11;15.77;;;11.57;;
1509;SDS011;746;48.688;9.428;2022-12-29T01:51:35;15.80;;;11.33;;
1509;SDS011;746;48.688;9.428;2022-12-29T01:53:58;13.93;;;11.30;;
1509;SDS011;746;48.688;9.428;2022-12-29T01:56:20;15.00;;;10.93;;
1509;SDS011;746;48.688;9.428;2022-12-29T01:58:42;13.10;;;10.03;;
1509;SDS011;746;48.688;9.428;2022-12-29T02:01:04;13.67;;;10.10;;
1509;SDS011;746;48.688;9.428;2022-12-29T02:03:26;12.87;;;10.13;;
1509;SDS011;746;48.688;9.428;2022-12-29T02:05:49;16.17;;;11.00;;
1509;SDS011;746;48.688;9.428;2022-12-29T02:08:13;13.43;;;10.30;;
1509;SDS011;746;48.688;9.428;2022-12-29T02:10:35;13.43;;;10.70;;
1509;SDS011;746;48.688;9.428;2022-12-29T02:12:56;12.13;;;9.73;;
1509;SDS011;746;48.688;9.428;2022-12-29T02:15:18;13.87;;;10.30;;
1509;SDS011;746;48.688;9.428;2022-12-29T02:17:50;13.37;;;9.93;;
1509;SDS011;746;48.688;9.428;2022-12-29T02:22:58;10.10;;;8.00;;
1509;SDS011;746;48.688;9.428;2022-12-29T02:25:34;7.03;;;5.97;;
1509;SDS011;746;48.688;9.428;2022-12-29T02:28:04;10.53;;;7.93;;
1509;SDS011;746;48.688;9.428;2022-12-29T02:30:36;9.60;;;8.50;;
1509;SDS011;746;48.688;9.428;2022-12-29T02:32:59;12.07;;;8.33;;
1509;SDS011;746;48.688;9.428;2022-12-29T02:35:25;10.27;;;8.70;;
1509;SDS011;746;48.688;9.428;2022-12-29T02:37:52;10.50;;;8.23;;
1509;SDS011;746;48.688;9.428;2022-12-29T02:40:18;9.77;;;8.00;;
1509;SDS011;746;48.688;9.428;2022-12-29T02:42:43;10.00;;;7.63;;
1509;SDS011;746;48.688;9.428;2022-12-29T02:45:07;7.40;;;6.60;;
1509;SDS011;746;48.688;9.428;2022-12-29T02:47:35;8.70;;;6.83;;
1509;SDS011;746;48.688;9.428;2022-12-29T02:49:59;14.53;;;9.67;;
1509;SDS011;746;48.688;9.428;2022-12-29T02:52:22;9.73;;;8.03;;
1509;SDS011;746;48.688;9.428;2022-12-29T02:54:47;16.20;;;9.67;;
1509;SDS011;746;48.688;9.428;2022-12-29T02:57:11;10.60;;;6.50;;
1509;SDS011;746;48.688;9.428;2022-12-29T02:59:32;12.57;;;8.80;;
1509;SDS011;746;48.688;9.428;2022-12-29T03:02:05;12.80;;;8.67;;
1509;SDS011;746;48.688;9.428;2022-12-29T03:04:39;4.57;;;3.90;;
1509;SDS011;746;48.688;9.428;2022-12-29T03:07:06;3.50;;;3.27;;
1509;SDS011;746;48.688;9.428;2022-12-29T03:09:34;4.13;;;3.40;;
1509;SDS011;746;48.688;9.428;2022-12-29T03:11:58;4.37;;;3.40;;
1509;SDS011;746;48.688;9.428;2022-12-29T03:14:29;4.57;;;3.17;;
1509;SDS011;746;48.688;9.428;2022-12-29T03:17:13;3.70;;;3.33;;
1509;SDS011;746;48.688;9.428;2022-12-29T03:19:41;4.80;;;3.53;;
1509;SDS011;746;48.688;9.428;2022-12-29T03:22:08;3.97;;;3.67;;
1509;SDS011;746;48.688;9.428;2022-12-29T03:24:52;3.00;;;2.80;;
1509;SDS011;746;48.688;9.428;2022-12-29T03:27:15;3.37;;;3.07;;
1509;SDS011;746;48.688;9.428;2022-12-29T03:29:38;2.90;;;2.70;;
1509;SDS011;746;48.688;9.428;2022-12-29T03:32:00;3.10;;;2.80;;
1509;SDS011;746;48.688;9.428;2022-12-29T03:34:22;3.07;;;2.80;;
1509;SDS011;746;48.688;9.428;2022-12-29T03:36:47;4.00;;;3.30;;
1509;SDS011;746;48.688;9.428;2022-12-29T03:39:09;2.97;;;2.70;;
1509;SDS011;746;48.688;9.428;2022-12-29T03:41:31;3.60;;;2.80;;
1509;SDS011;746;48.688;9.428;2022-12-29T03:43:53;3.90;;;2.57;;
1509;SDS011;746;48.688;9.428;2022-12-29T03:46:15;2.60;;;2.40;;
1509;SDS011;746;48.688;9.428;2022-12-29T03:48:37;2.17;;;2.07;;
1509;SDS011;746;48.688;9.428;2022-12-29T03:50:58;2.00;;;1.90;;
1509;SDS011;746;48.688;9.428;2022-12-29T03:53:21;1.90;;;1.80;;
1509;SDS011;746;48.688;9.428;2022-12-29T03:55:42;2.13;;;1.70;;
1509;SDS011;746;48.688;9.428;2022-12-29T03:58:03;2.10;;;1.90;;
1509;SDS011;746;48.688;9.428;2022-12-29T04:00:25;2.07;;;1.87;;
1509;SDS011;746;48.688;9.428;2022-12-29T04:02:46;1.60;;;1.50;;
1509;SDS011;746;48.688;9.428;2022-12-29T04:05:07;3.43;;;1.90;;
1509;SDS011;746;48.688;9.428;2022-12-29T04:07:28;2.10;;;1.50;;
1509;SDS011;746;48.688;9.428;2022-12-29T04:09:51;2.97;;;1.60;;
1509;SDS011;746;48.688;9.428;2022-12-29T04:12:12;2.53;;;1.50;;
1509;SDS011;746;48.688;9.428;2022-12-29T04:14:34;4.40;;;2.00;;
1509;SDS011;746;48.688;9.428;2022-12-29T04:16:55;2.67;;;1.70;;
1509;SDS011;746;48.688;9.428;2022-12-29T04:19:16;3.23;;;1.70;;
1509;SDS011;746;48.688;9.428;2022-12-29T04:21:37;2.73;;;1.53;;
1509;SDS011;746;48.688;9.428;2022-12-29T04:23:59;1.70;;;1.60;;
1509;SDS011;746;48.688;9.428;2022-12-29T04:26:22;2.60;;;1.63;;
1509;SDS011;746;48.688;9.428;2022-12-29T04:28:43;2.03;;;1.57;;
1509;SDS011;746;48.688;9.428;2022-12-29T04:31:04;2.17;;;1.40;;
1509;SDS011;746;48.688;9.428;2022-12-29T04:33:26;2.30;;;1.53;;
1509;SDS011;746;48.688;9.428;2022-12-29T04:35:47;3.60;;;1.70;;
1509;SDS011;746;48.688;9.428;2022-12-29T04:38:09;2.07;;;1.50;;
1509;SDS011;746;48.688;9.428;2022-12-29T04:40:30;2.23;;;1.70;;
1509;SDS011;746;48.688;9.428;2022-12-29T04:42:54;3.53;;;1.77;;
1509;SDS011;746;48.688;9.428;2022-12-29T04:45:15;2.20;;;1.70;;
1509;SDS011;746;48.688;9.428;2022-12-29T04:47:36;3.33;;;1.77;;
1509;SDS011;746;48.688;9.428;2022-12-29T04:49:58;1.87;;;1.67;;
1509;SDS011;746;48.688;9.428;2022-12-29T04:52:19;2.03;;;1.80;;
1509;SDS011;746;48.688;9.428;2022-12-29T04:54:40;2.47;;;1.90;;
1509;SDS011;746;48.688;9.428;2022-12-29T04:57:02;1.93;;;1.70;;
1509;SDS011;746;48.688;9.428;2022-12-29T04:59:24;2.03;;;1.90;;
1509;SDS011;746;48.688;9.428;2022-12-29T05:01:46;3.50;;;1.53;;
1509;SDS011;746;48.688;9.428;2022-12-29T05:04:07;1.97;;;1.67;;
1509;SDS011;746;48.688;9.428;2022-12-29T05:06:28;6.07;;;1.90;;
1509;SDS011;746;48.688;9.428;2022-12-29T05:08:50;2.40;;;1.60;;
1509;SDS011;746;48.688;9.428;2022-12-29T05:11:11;3.17;;;2.03;;
1509;SDS011;746;48.688;9.428;2022-12-29T05:13:32;3.47;;;2.10;;
1509;SDS011;746;48.688;9.428;2022-12-29T05:15:55;3.33;;;2.20;;
1509;SDS011;746;48.688;9.428;2022-12-29T05:18:16;1.70;;;1.60;;
1509;SDS011;746;48.688;9.428;2022-12-29T05:20:38;2.53;;;2.00;;
1509;SDS011;746;48.688;9.428;2022-12-29T05:22:59;3.10;;;1.90;;
1509;SDS011;746;48.688;9.428;2022-12-29T05:25:20;3.67;;;2.10;;
1509;SDS011;746;48.688;9.428;2022-12-29T05:27:41;2.63;;;1.90;;
1509;SDS011;746;48.688;9.428;2022-12-29T05:30:03;1.90;;;1.70;;
1509;SDS011;746;48.688;9.428;2022-12-29T05:32:25;2.50;;;1.70;;
1509;SDS011;746;48.688;9.428;2022-12-29T05:34:47;3.43;;;1.90;;
1509;SDS011;746;48.688;9.428;2022-12-29T05:37:08;2.13;;;1.70;;
1509;SDS011;746;48.688;9.428;2022-12-29T05:39:29;2.20;;;2.00;;
1509;SDS011;746;48.688;9.428;2022-12-29T05:41:51;1.83;;;1.73;;
1509;SDS011;746;48.688;9.428;2022-12-29T05:44:12;2.13;;;1.87;;
1509;SDS011;746;48.688;9.428;2022-12-29T05:46:33;2.20;;;1.80;;
1509;SDS011;746;48.688;9.428;2022-12-29T05:48:56;3.27;;;1.90;;
1509;SDS011;746;48.688;9.428;2022-12-29T05:51:17;2.97;;;2.00;;
1509;SDS011;746;48.688;9.428;2022-12-29T05:53:39;2.90;;;2.20;;
1509;SDS011;746;48.688;9.428;2022-12-29T05:56:00;2.13;;;1.93;;
1509;SDS011;746;48.688;9.428;2022-12-29T05:58:21;2.40;;;2.20;;
1509;SDS011;746;48.688;9.428;2022-12-29T06:00:43;2.37;;;1.80;;
1509;SDS011;746;48.688;9.428;2022-12-29T06:03:04;1.93;;;1.70;;
1509;SDS011;746;48.688;9.428;2022-12-29T06:05:26;2.00;;;1.90;;
1509;SDS011;746;48.688;9.428;2022-12-29T06:07:47;2.50;;;2.13;;
1509;SDS011;746;48.688;9.428;2022-12-29T06:10:09;2.00;;;1.90;;
1509;SDS011;746;48.688;9.428;2022-12-29T06:12:30;3.93;;;1.90;;
1509;SDS011;746;48.688;9.428;2022-12-29T06:14:51;4.43;;;2.10;;
1509;SDS011;746;48.688;9.428;2022-12-29T06:17:13;4.13;;;2.10;;
1509;SDS011;746;48.688;9.428;2022-12-29T06:19:36;2.10;;;1.90;;
1509;SDS011;746;48.688;9.428;2022-12-29T06:21:58;2.03;;;1.83;;
1509;SDS011;746;48.688;9.428;2022-12-29T06:24:20;2.10;;;2.00;;
1509;SDS011;746;48.688;9.428;2022-12-29T06:26:41;3.40;;;1.70;;
1509;SDS011;746;48.688;9.428;2022-12-29T06:29:02;1.70;;;1.60;;
1509;SDS011;746;48.688;9.428;2022-12-29T06:31:24;2.30;;;1.70;;
1509;SDS011;746;48.688;9.428;2022-12-29T06:33:45;1.90;;;1.80;;
1509;SDS011;746;48.688;9.428;2022-12-29T06:36:09;2.57;;;1.90;;
1509;SDS011;746;48.688;9.428;2022-12-29T06:38:31;2.30;;;1.80;;
1509;SDS011;746;48.688;9.428;2022-12-29T06:40:52;5.10;;;2.83;;
1509;SDS011;746;48.688;9.428;2022-12-29T06:43:14;3.23;;;2.57;;
1509;SDS011;746;48.688;9.428;2022-12-29T06:45:37;2.73;;;2.07;;
1509;SDS011;746;48.688;9.428;2022-12-29T06:47:58;2.20;;;2.10;;
1509;SDS011;746;48.688;9.428;2022-12-29T06:50:19;2.37;;;1.90;;
1509;SDS011;746;48.688;9.428;2022-12-29T06:52:40;4.33;;;2.40;;
1509;SDS011;746;48.688;9.428;2022-12-29T06:55:03;2.10;;;2.00;;
1509;SDS011;746;48.688;9.428;2022-12-29T06:57:25;2.20;;;2.00;;
1509;SDS011;746;48.688;9.428;2022-12-29T06:59:46;2.33;;;1.97;;
1509;SDS011;746;48.688;9.428;2022-12-29T07:02:08;2.40;;;1.97;;
1509;SDS011;746;48.688;9.428;2022-12-29T07:04:30;1.70;;;1.53;;
1509;SDS011;746;48.688;9.428;2022-12-29T07:06:51;4.47;;;1.80;;
1509;SDS011;746;48.688;9.428;2022-12-29T07:09:12;2.23;;;1.90;;
1509;SDS011;746;48.688;9.428;2022-12-29T07:11:35;1.97;;;1.70;;
1509;SDS011;746;48.688;9.428;2022-12-29T07:13:57;3.87;;;2.00;;
1509;SDS011;746;48.688;9.428;2022-12-29T07:16:21;1.63;;;1.53;;
1509;SDS011;746;48.688;9.428;2022-12-29T07:18:42;2.03;;;1.70;;
1509;SDS011;746;48.688;9.428;2022-12-29T07:21:04;2.33;;;1.90;;
1509;SDS011;746;48.688;9.428;2022-12-29T07:23:26;1.93;;;1.83;;
1509;SDS011;746;48.688;9.428;2022-12-29T07:25:47;1.83;;;1.73;;
1509;SDS011;746;48.688;9.428;2022-12-29T07:28:09;2.20;;;2.00;;
1509;SDS011;746;48.688;9.428;2022-12-29T07:30:31;1.90;;;1.80;;
1509;SDS011;746;48.688;9.428;2022-12-29T07:32:52;2.20;;;1.90;;
1509;SDS011;746;48.688;9.428;2022-12-29T07:35:14;2.97;;;1.93;;
1509;SDS011;746;48.688;9.428;2022-12-29T07:37:36;2.77;;;1.80;;
1509;SDS011;746;48.688;9.428;2022-12-29T07:39:57;2.10;;;1.90;;
1509;SDS011;746;48.688;9.428;2022-12-29T07:42:18;3.07;;;1.93;;
1509;SDS011;746;48.688;9.428;2022-12-29T07:44:41;1.90;;;1.80;;
1509;SDS011;746;48.688;9.428;2022-12-29T07:47:02;2.60;;;2.40;;
1509;SDS011;746;48.688;9.428;2022-12-29T07:49:23;3.67;;;3.40;;
1509;SDS011;746;48.688;9.428;2022-12-29T07:51:45;4.87;;;3.83;;
1509;SDS011;746;48.688;9.428;2022-12-29T07:54:06;2.30;;;2.20;;
1509;SDS011;746;48.688;9.428;2022-12-29T07:56:27;2.67;;;2.20;;
1509;SDS011;746;48.688;9.428;2022-12-29T07:58:49;3.43;;;3.07;;
1509;SDS011;746;48.688;9.428;2022-12-29T08:01:11;2.40;;;2.20;;
1509;SDS011;746;48.688;9.428;2022-12-29T08:03:33;2.43;;;2.00;;
1509;SDS011;746;48.688;9.428;2022-12-29T08:05:54;1.93;;;1.77;;
1509;SDS011;746;48.688;9.428;2022-12-29T08:08:17;1.97;;;1.87;;
1509;SDS011;746;48.688;9.428;2022-12-29T08:10:38;4.87;;;2.23;;
1509;SDS011;746;48.688;9.428;2022-12-29T08:13:00;2.20;;;1.87;;
1509;SDS011;746;48.688;9.428;2022-12-29T08:15:21;2.00;;;1.90;;
1509;SDS011;746;48.688;9.428;2022-12-29T08:17:52;2.40;;;1.97;;
1509;SDS011;746;48.688;9.428;2022-12-29T08:20:14;2.80;;;2.17;;
1509;SDS011;746;48.688;9.428;2022-12-29T08:22:35;2.80;;;2.27;;
1509;SDS011;746;48.688;9.428;2022-12-29T08:24:56;3.47;;;2.00;;
1509;SDS011;746;48.688;9.428;2022-12-29T08:27:18;2.40;;;2.20;;
1509;SDS011;746;48.688;9.428;2022-12-29T08:29:40;2.20;;;1.97;;
1509;SDS011;746;48.688;9.428;2022-12-29T08:32:01;2.07;;;1.80;;
1509;SDS011;746;48.688;9.428;2022-12-29T08:34:23;2.83;;;1.80;;
1509;SDS011;746;48.688;9.428;2022-12-29T08:36:45;2.37;;;1.70;;
1509;SDS011;746;48.688;9.428;2022-12-29T08:39:06;3.27;;;2.50;;
1509;SDS011;746;48.688;9.428;2022-12-29T08:41:27;2.93;;;2.63;;
1509;SDS011;746;48.688;9.428;2022-12-29T08:43:48;2.70;;;2.20;;
1509;SDS011;746;48.688;9.428;2022-12-29T08:46:10;2.33;;;2.10;;
1509;SDS011;746;48.688;9.428;2022-12-29T08:48:31;2.07;;;1.80;;
1509;SDS011;746;48.688;9.428;2022-12-29T08:50:54;6.67;;;2.13;;
1509;SDS011;746;48.688;9.428;2022-12-29T08:53:15;3.73;;;2.07;;
1509;SDS011;746;48.688;9.428;2022-12-29T08:55:38;2.53;;;2.20;;
1509;SDS011;746;48.688;9.428;2022-12-29T08:57:59;2.40;;;2.20;;
1509;SDS011;746;48.688;9.428;2022-12-29T09:00:20;4.63;;;4.23;;
1509;SDS011;746;48.688;9.428;2022-12-29T09:02:41;4.03;;;3.63;;
1509;SDS011;746;48.688;9.428;2022-12-29T09:05:03;4.63;;;3.83;;
1509;SDS011;746;48.688;9.428;2022-12-29T09:07:26;4.20;;;3.90;;
1509;SDS011;746;48.688;9.428;2022-12-29T09:09:47;4.00;;;3.63;;
1509;SDS011;746;48.688;9.428;2022-12-29T09:12:09;4.20;;;2.80;;
1509;SDS011;746;48.688;9.428;2022-12-29T09:14:30;3.50;;;2.90;;
1509;SDS011;746;48.688;9.428;2022-12-29T09:16:51;2.60;;;2.40;;
1509;SDS011;746;48.688;9.428;2022-12-29T09:19:30;3.70;;;3.13;;
1509;SDS011;746;48.688;9.428;2022-12-29T09:21:51;4.43;;;3.20;;
1509;SDS011;746;48.688;9.428;2022-12-29T09:24:14;5.47;;;3.17;;
1509;SDS011;746;48.688;9.428;2022-12-29T09:26:35;4.40;;;4.00;;
1509;SDS011;746;48.688;9.428;2022-12-29T09:29:05;8.37;;;5.47;;
1509;SDS011;746;48.688;9.428;2022-12-29T09:31:26;8.07;;;6.87;;
1509;SDS011;746;48.688;9.428;2022-12-29T09:33:48;5.77;;;4.50;;
1509;SDS011;746;48.688;9.428;2022-12-29T09:36:09;5.47;;;4.50;;
1509;SDS011;746;48.688;9.428;2022-12-29T09:38:30;3.23;;;2.80;;
1509;SDS011;746;48.688;9.428;2022-12-29T09:40:54;3.53;;;3.10;;
1509;SDS011;746;48.688;9.428;2022-12-29T09:43:25;6.83;;;3.60;;
1509;SDS011;746;48.688;9.428;2022-12-29T09:45:51;2.60;;;2.50;;
1509;SDS011;746;48.688;9.428;2022-12-29T09:48:15;2.87;;;2.57;;
1509;SDS011;746;48.688;9.428;2022-12-29T09:50:37;5.70;;;2.47;;
1509;SDS011;746;48.688;9.428;2022-12-29T09:53:00;2.77;;;2.40;;
1509;SDS011;746;48.688;9.428;2022-12-29T09:55:23;3.23;;;2.00;;
1509;SDS011;746;48.688;9.428;2022-12-29T09:57:49;4.67;;;2.37;;
1509;SDS011;746;48.688;9.428;2022-12-29T10:00:13;2.97;;;2.23;;
1509;SDS011;746;48.688;9.428;2022-12-29T10:02:37;2.10;;;2.00;;
1509;SDS011;746;48.688;9.428;2022-12-29T10:05:00;2.40;;;2.20;;
1509;SDS011;746;48.688;9.428;2022-12-29T10:07:24;2.23;;;1.90;;
1509;SDS011;746;48.688;9.428;2022-12-29T10:09:52;2.80;;;1.80;;
1509;SDS011;746;48.688;9.428;2022-12-29T10:12:16;3.70;;;1.97;;
1509;SDS011;746;48.688;9.428;2022-12-29T10:14:47;2.37;;;2.17;;
1509;SDS011;746;48.688;9.428;2022-12-29T10:17:19;3.33;;;2.10;;
1509;SDS011;746;48.688;9.428;2022-12-29T10:19:48;3.23;;;1.80;;
1509;SDS011;746;48.688;9.428;2022-12-29T10:22:14;3.13;;;2.13;;
1509;SDS011;746;48.688;9.428;2022-12-29T10:24:39;4.43;;;2.13;;
1509;SDS011;746;48.688;9.428;2022-12-29T10:27:01;2.00;;;1.77;;
1509;SDS011;746;48.688;9.428;2022-12-29T10:29:23;3.20;;;2.40;;
1509;SDS011;746;48.688;9.428;2022-12-29T10:31:48;3.00;;;2.40;;
1509;SDS011;746;48.688;9.428;2022-12-29T10:34:14;2.40;;;2.20;;
1509;SDS011;746;48.688;9.428;2022-12-29T10:36:38;3.10;;;2.03;;
1509;SDS011;746;48.688;9.428;2022-12-29T10:39:02;2.53;;;2.03;;
1509;SDS011;746;48.688;9.428;2022-12-29T10:41:25;2.80;;;2.20;;
1509;SDS011;746;48.688;9.428;2022-12-29T10:43:47;2.60;;;2.03;;
1509;SDS011;746;48.688;9.428;2022-12-29T10:46:09;3.60;;;2.43;;
1509;SDS011;746;48.688;9.428;2022-12-29T10:48:33;2.87;;;2.47;;
1509;SDS011;746;48.688;9.428;2022-12-29T10:50:55;3.17;;;2.20;;
1509;SDS011;746;48.688;9.428;2022-12-29T10:53:22;4.20;;;2.13;;
1509;SDS011;746;48.688;9.428;2022-12-29T10:55:44;3.53;;;2.63;;
1509;SDS011;746;48.688;9.428;2022-12-29T10:58:06;2.90;;;2.70;;
1509;SDS011;746;48.688;9.428;2022-12-29T11:00:30;3.77;;;2.60;;
1509;SDS011;746;48.688;9.428;2022-12-29T11:02:55;2.87;;;2.07;;
1509;SDS011;746;48.688;9.428;2022-12-29T11:05:23;2.07;;;1.77;;
1509;SDS011;746;48.688;9.428;2022-12-29T11:07:46;2.00;;;1.90;;
1509;SDS011;746;48.688;9.428;2022-12-29T11:10:18;2.30;;;2.00;;
1509;SDS011;746;48.688;9.428;2022-12-29T11:12:40;2.23;;;1.80;;
1509;SDS011;746;48.688;9.428;2022-12-29T11:15:05;4.33;;;2.20;;
1509;SDS011;746;48.688;9.428;2022-12-29T11:17:31;5.33;;;3.10;;
1509;SDS011;746;48.688;9.428;2022-12-29T11:20:14;1.90;;;1.80;;
1509;SDS011;746;48.688;9.428;2022-12-29T11:22:42;2.10;;;1.90;;
1509;SDS011;746;48.688;9.428;2022-12-29T11:25:05;2.20;;;2.10;;
1509;SDS011;746;48.688;9.428;2022-12-29T11:27:27;2.00;;;1.90;;
1509;SDS011;746;48.688;9.428;2022-12-29T11:29:49;3.50;;;2.97;;
1509;SDS011;746;48.688;9.428;2022-12-29T11:32:11;9.50;;;5.00;;
1509;SDS011;746;48.688;9.428;2022-12-29T11:34:33;4.40;;;2.60;;
1509;SDS011;746;48.688;9.428;2022-12-29T11:36:58;2.40;;;2.20;;
1509;SDS011;746;48.688;9.428;2022-12-29T11:39:32;4.23;;;3.93;;
1509;SDS011;746;48.688;9.428;2022-12-29T11:41:54;2.30;;;2.10;;
1509;SDS011;746;48.688;9.428;2022-12-29T11:44:15;4.37;;;3.60;;
1509;SDS011;746;48.688;9.428;2022-12-29T11:46:36;4.27;;;3.40;;
1509;SDS011;746;48.688;9.428;2022-12-29T11:48:58;4.93;;;2.67;;
1509;SDS011;746;48.688;9.428;2022-12-29T11:51:23;2.50;;;2.40;;
1509;SDS011;746;48.688;9.428;2022-12-29T11:53:46;1.90;;;1.80;;
1509;SDS011;746;48.688;9.428;2022-12-29T11:56:10;2.77;;;2.50;;
1509;SDS011;746;48.688;9.428;2022-12-29T11:58:33;2.63;;;2.00;;
1509;SDS011;746;48.688;9.428;2022-12-29T12:00:54;2.00;;;1.77;;
1509;SDS011;746;48.688;9.428;2022-12-29T12:03:17;3.73;;;1.80;;
1509;SDS011;746;48.688;9.428;2022-12-29T12:05:41;2.67;;;2.17;;
1509;SDS011;746;48.688;9.428;2022-12-29T12:08:08;2.30;;;2.10;;
1509;SDS011;746;48.688;9.428;2022-12-29T12:10:42;3.57;;;1.97;;
1509;SDS011;746;48.688;9.428;2022-12-29T12:13:08;2.30;;;2.20;;
1509;SDS011;746;48.688;9.428;2022-12-29T12:15:34;2.47;;;2.27;;
1509;SDS011;746;48.688;9.428;2022-12-29T12:18:05;2.43;;;2.27;;
1509;SDS011;746;48.688;9.428;2022-12-29T12:20:34;2.47;;;2.07;;
1509;SDS011;746;48.688;9.428;2022-12-29T12:22:58;3.13;;;2.40;;
1509;SDS011;746;48.688;9.428;2022-12-29T12:25:23;1.97;;;1.87;;
1509;SDS011;746;48.688;9.428;2022-12-29T12:27:47;2.93;;;2.20;;
1509;SDS011;746;48.688;9.428;2022-12-29T12:30:11;2.53;;;2.17;;
1509;SDS011;746;48.688;9.428;2022-12-29T12:32:36;2.93;;;2.10;;
1509;SDS011;746;48.688;9.428;2022-12-29T12:35:03;2.10;;;2.00;;
1509;SDS011;746;48.688;9.428;2022-12-29T12:42:39;2.70;;;2.50;;
1509;SDS011;746;48.688;9.428;2022-12-29T12:45:08;5.53;;;2.17;;
1509;SDS011;746;48.688;9.428;2022-12-29T12:47:40;7.20;;;2.03;;
1509;SDS011;746;48.688;9.428;2022-12-29T12:50:14;2.67;;;2.47;;
1509;SDS011;746;48.688;9.428;2022-12-29T12:52:39;2.83;;;2.53;;
1509;SDS011;746;48.688;9.428;2022-12-29T12:55:12;3.03;;;2.37;;
1509;SDS011;746;48.688;9.428;2022-12-29T12:57:43;2.33;;;1.90;;
1509;SDS011;746;48.688;9.428;2022-12-29T13:00:09;2.47;;;2.20;;
1509;SDS011;746;48.688;9.428;2022-12-29T13:02:34;2.30;;;2.10;;
1509;SDS011;746;48.688;9.428;2022-12-29T13:05:05;1.90;;;1.80;;
1509;SDS011;746;48.688;9.428;2022-12-29T13:07:32;3.27;;;1.97;;
1509;SDS011;746;48.688;9.428;2022-12-29T13:09:59;3.77;;;2.47;;
1509;SDS011;746;48.688;9.428;2022-12-29T13:12:25;2.30;;;1.97;;
1509;SDS011;746;48.688;9.428;2022-12-29T13:14:53;2.67;;;1.93;;
1509;SDS011;746;48.688;9.428;2022-12-29T13:17:18;2.20;;;2.10;;
1509;SDS011;746;48.688;9.428;2022-12-29T13:19:41;1.90;;;1.80;;
1509;SDS011;746;48.688;9.428;2022-12-29T13:22:08;2.03;;;1.90;;
1509;SDS011;746;48.688;9.428;2022-12-29T13:24:31;2.10;;;1.73;;
1509;SDS011;746;48.688;9.428;2022-12-29T13:26:56;1.60;;;1.60;;
1509;SDS011;746;48.688;9.428;2022-12-29T13:29:21;2.53;;;2.33;;
1509;SDS011;746;48.688;9.428;2022-12-29T13:31:46;2.10;;;2.00;;
1509;SDS011;746;48.688;9.428;2022-12-29T13:34:13;2.37;;;2.17;;
1509;SDS011;746;48.688;9.428;2022-12-29T13:36:37;2.30;;;2.20;;
1509;SDS011;746;48.688;9.428;2022-12-29T13:39:02;2.50;;;2.30;;
1509;SDS011;746;48.688;9.428;2022-12-29T13:41:27;2.93;;;2.63;;
1509;SDS011;746;48.688;9.428;2022-12-29T13:43:50;2.60;;;2.37;;
1509;SDS011;746;48.688;9.428;2022-12-29T13:46:12;2.60;;;2.40;;
1509;SDS011;746;48.688;9.428;2022-12-29T13:48:36;3.10;;;2.87;;
1509;SDS011;746;48.688;9.428;2022-12-29T13:50:58;2.93;;;2.60;;
1509;SDS011;746;48.688;9.428;2022-12-29T13:53:24;3.10;;;2.80;;
1509;SDS011;746;48.688;9.428;2022-12-29T13:55:51;3.77;;;3.10;;
1509;SDS011;746;48.688;9.428;2022-12-29T13:58:13;4.13;;;3.73;;
1509;SDS011;746;48.688;9.428;2022-12-29T14:00:38;3.50;;;3.20;;
1509;SDS011;746;48.688;9.428;2022-12-29T14:03:16;4.40;;;3.40;;
1509;SDS011;746;48.688;9.428;2022-12-29T14:06:02;3.70;;;3.40;;
1509;SDS011;746;48.688;9.428;2022-12-29T14:08:24;2.80;;;2.23;;
1509;SDS011;746;48.688;9.428;2022-12-29T14:10:46;2.60;;;2.40;;
1509;SDS011;746;48.688;9.428;2022-12-29T14:13:11;4.27;;;2.50;;
1509;SDS011;746;48.688;9.428;2022-12-29T14:15:33;2.37;;;2.27;;
1509;SDS011;746;48.688;9.428;2022-12-29T14:18:14;2.27;;;2.07;;
1509;SDS011;746;48.688;9.428;2022-12-29T14:20:36;2.20;;;2.10;;
1509;SDS011;746;48.688;9.428;2022-12-29T14:23:00;2.67;;;2.47;;
1509;SDS011;746;48.688;9.428;2022-12-29T14:27:57;2.63;;;2.43;;
1509;SDS011;746;48.688;9.428;2022-12-29T14:33:11;2.50;;;2.30;;
1509;SDS011;746;48.688;9.428;2022-12-29T14:35:39;2.97;;;1.90;;
1509;SDS011;746;48.688;9.428;2022-12-29T14:38:12;2.37;;;2.17;;
1509;SDS011;746;48.688;9.428;2022-12-29T14:40:36;2.57;;;2.37;;
1509;SDS011;746;48.688;9.428;2022-12-29T14:42:57;2.50;;;2.30;;
1509;SDS011;746;48.688;9.428;2022-12-29T14:45:26;2.63;;;2.23;;
1509;SDS011;746;48.688;9.428;2022-12-29T14:47:48;4.90;;;4.40;;
1509;SDS011;746;48.688;9.428;2022-12-29T14:50:13;3.73;;;3.40;;
1509;SDS011;746;48.688;9.428;2022-12-29T14:52:40;4.03;;;2.70;;
1509;SDS011;746;48.688;9.428;2022-12-29T14:57:40;2.77;;;2.57;;
1509;SDS011;746;48.688;9.428;2022-12-29T15:00:05;3.63;;;3.33;;
1509;SDS011;746;48.688;9.428;2022-12-29T15:02:27;4.37;;;3.53;;
1509;SDS011;746;48.688;9.428;2022-12-29T15:04:53;4.50;;;3.37;;
1509;SDS011;746;48.688;9.428;2022-12-29T15:07:16;4.13;;;3.27;;
1509;SDS011;746;48.688;9.428;2022-12-29T15:09:40;3.20;;;3.00;;
1509;SDS011;746;48.688;9.428;2022-12-29T15:12:04;3.90;;;3.43;;
1509;SDS011;746;48.688;9.428;2022-12-29T15:14:35;5.10;;;3.33;;
1509;SDS011;746;48.688;9.428;2022-12-29T15:16:57;5.73;;;5.23;;
1509;SDS011;746;48.688;9.428;2022-12-29T15:19:20;6.43;;;5.80;;
1509;SDS011;746;48.688;9.428;2022-12-29T15:21:41;4.47;;;3.10;;
1509;SDS011;746;48.688;9.428;2022-12-29T15:24:04;5.37;;;3.10;;